sensor_id;sensor_type;location;lat;lon;timestamp;P1;durP1;ratioP1;P2;durP2;ratioP2
55031;SDS011;40928;51.076;7.950;2022-07-09T00:01:26;5.07;;;2.17;;
55031;SDS011;40928;51.076;7.950;2022-07-09T00:03:51;3.03;;;1.92;;
55031;SDS011;40928;51.076;7.950;2022-07-09T00:06:17;3.08;;;1.50;;
55031;SDS011;40928;51.076;7.950;2022-07-09T00:08:43;2.58;;;1.83;;
55031;SDS011;40928;51.076;7.950;2022-07-09T00:11:09;5.88;;;1.65;;
55031;SDS011;40928;51.076;7.950;2022-07-09T00:13:34;6.90;;;2.20;;
55031;SDS011;40928;51.076;7.950;2022-07-09T00:16:00;3.75;;;1.50;;
55031;SDS011;40928;51.076;7.950;2022-07-09T00:18:25;3.60;;;2.13;;
55031;SDS011;40928;51.076;7.950;2022-07-09T00:20:53;3.58;;;2.05;;
55031;SDS011;40928;51.076;7.950;2022-07-09T00:23:22;6.47;;;2.22;;
55031;SDS011;40928;51.076;7.950;2022-07-09T00:25:48;4.22;;;2.20;;
55031;SDS011;40928;51.076;7.950;2022-07-09T00:28:13;4.10;;;1.67;;
55031;SDS011;40928;51.076;7.950;2022-07-09T00:30:39;4.68;;;1.60;;
55031;SDS011;40928;51.076;7.950;2022-07-09T00:33:04;4.70;;;1.90;;
55031;SDS011;40928;51.076;7.950;2022-07-09T00:35:30;2.92;;;1.63;;
55031;SDS011;40928;51.076;7.950;2022-07-09T00:37:55;4.30;;;2.05;;
55031;SDS011;40928;51.076;7.950;2022-07-09T00:40:21;4.72;;;1.98;;
55031;SDS011;40928;51.076;7.950;2022-07-09T00:42:46;4.18;;;2.10;;
55031;SDS011;40928;51.076;7.950;2022-07-09T00:45:12;4.13;;;2.17;;
55031;SDS011;40928;51.076;7.950;2022-07-09T00:47:37;3.10;;;2.05;;
55031;SDS011;40928;51.076;7.950;2022-07-09T00:50:03;4.95;;;2.20;;
55031;SDS011;40928;51.076;7.950;2022-07-09T00:52:30;3.10;;;2.00;;
55031;SDS011;40928;51.076;7.950;2022-07-09T00:54:57;4.72;;;2.20;;
55031;SDS011;40928;51.076;7.950;2022-07-09T00:57:25;3.22;;;2.03;;
55031;SDS011;40928;51.076;7.950;2022-07-09T00:59:50;4.20;;;1.80;;
55031;SDS011;40928;51.076;7.950;2022-07-09T01:02:17;3.55;;;1.88;;
55031;SDS011;40928;51.076;7.950;2022-07-09T01:04:44;5.40;;;1.98;;
55031;SDS011;40928;51.076;7.950;2022-07-09T01:07:10;4.07;;;2.20;;
55031;SDS011;40928;51.076;7.950;2022-07-09T01:09:35;4.43;;;2.35;;
55031;SDS011;40928;51.076;7.950;2022-07-09T01:12:03;3.08;;;2.05;;
55031;SDS011;40928;51.076;7.950;2022-07-09T01:14:29;4.93;;;2.72;;
55031;SDS011;40928;51.076;7.950;2022-07-09T01:17:02;4.80;;;2.50;;
55031;SDS011;40928;51.076;7.950;2022-07-09T01:19:30;2.92;;;1.80;;
55031;SDS011;40928;51.076;7.950;2022-07-09T01:21:57;3.92;;;2.40;;
55031;SDS011;40928;51.076;7.950;2022-07-09T01:24:23;3.78;;;1.98;;
55031;SDS011;40928;51.076;7.950;2022-07-09T01:26:49;3.47;;;2.03;;
55031;SDS011;40928;51.076;7.950;2022-07-09T01:29:17;4.78;;;2.40;;
55031;SDS011;40928;51.076;7.950;2022-07-09T01:31:42;4.13;;;1.90;;
55031;SDS011;40928;51.076;7.950;2022-07-09T01:34:08;3.53;;;1.67;;
55031;SDS011;40928;51.076;7.950;2022-07-09T01:36:33;3.17;;;1.90;;
55031;SDS011;40928;51.076;7.950;2022-07-09T01:38:59;6.53;;;2.90;;
55031;SDS011;40928;51.076;7.950;2022-07-09T01:41:25;4.07;;;1.90;;
55031;SDS011;40928;51.076;7.950;2022-07-09T01:43:50;6.03;;;1.98;;
55031;SDS011;40928;51.076;7.950;2022-07-09T01:46:16;2.40;;;1.88;;
55031;SDS011;40928;51.076;7.950;2022-07-09T01:48:41;2.40;;;1.65;;
55031;SDS011;40928;51.076;7.950;2022-07-09T01:51:08;6.30;;;2.13;;
55031;SDS011;40928;51.076;7.950;2022-07-09T01:53:37;3.03;;;1.90;;
55031;SDS011;40928;51.076;7.950;2022-07-09T01:56:06;3.45;;;1.88;;
55031;SDS011;40928;51.076;7.950;2022-07-09T01:58:32;2.95;;;1.73;;
55031;SDS011;40928;51.076;7.950;2022-07-09T02:00:58;4.90;;;2.38;;
55031;SDS011;40928;51.076;7.950;2022-07-09T02:03:24;4.07;;;2.03;;
55031;SDS011;40928;51.076;7.950;2022-07-09T02:05:49;3.03;;;2.03;;
55031;SDS011;40928;51.076;7.950;2022-07-09T02:08:15;5.10;;;2.40;;
55031;SDS011;40928;51.076;7.950;2022-07-09T02:10:41;2.83;;;1.70;;
55031;SDS011;40928;51.076;7.950;2022-07-09T02:13:06;4.45;;;2.10;;
55031;SDS011;40928;51.076;7.950;2022-07-09T02:15:32;3.60;;;2.15;;
55031;SDS011;40928;51.076;7.950;2022-07-09T02:17:57;3.58;;;2.17;;
55031;SDS011;40928;51.076;7.950;2022-07-09T02:20:23;4.07;;;2.30;;
55031;SDS011;40928;51.076;7.950;2022-07-09T02:22:49;3.72;;;2.10;;
55031;SDS011;40928;51.076;7.950;2022-07-09T02:25:15;4.13;;;1.90;;
55031;SDS011;40928;51.076;7.950;2022-07-09T02:27:41;5.00;;;2.10;;
55031;SDS011;40928;51.076;7.950;2022-07-09T02:30:07;3.47;;;1.98;;
55031;SDS011;40928;51.076;7.950;2022-07-09T02:32:32;3.95;;;2.22;;
55031;SDS011;40928;51.076;7.950;2022-07-09T02:34:58;2.88;;;2.08;;
55031;SDS011;40928;51.076;7.950;2022-07-09T02:37:24;2.55;;;2.20;;
55031;SDS011;40928;51.076;7.950;2022-07-09T02:39:49;7.60;;;2.40;;
55031;SDS011;40928;51.076;7.950;2022-07-09T02:42:15;4.63;;;2.10;;
55031;SDS011;40928;51.076;7.950;2022-07-09T02:44:40;2.53;;;1.35;;
55031;SDS011;40928;51.076;7.950;2022-07-09T02:47:08;3.67;;;2.10;;
55031;SDS011;40928;51.076;7.950;2022-07-09T02:49:34;4.13;;;2.30;;
55031;SDS011;40928;51.076;7.950;2022-07-09T02:52:00;6.57;;;2.97;;
55031;SDS011;40928;51.076;7.950;2022-07-09T02:54:27;4.28;;;2.35;;
55031;SDS011;40928;51.076;7.950;2022-07-09T02:56:53;2.85;;;2.10;;
55031;SDS011;40928;51.076;7.950;2022-07-09T02:59:18;4.43;;;2.60;;
55031;SDS011;40928;51.076;7.950;2022-07-09T03:01:44;4.95;;;2.08;;
55031;SDS011;40928;51.076;7.950;2022-07-09T03:04:10;5.22;;;2.53;;
55031;SDS011;40928;51.076;7.950;2022-07-09T03:06:35;6.07;;;2.92;;
55031;SDS011;40928;51.076;7.950;2022-07-09T03:09:01;2.83;;;2.13;;
55031;SDS011;40928;51.076;7.950;2022-07-09T03:11:27;3.90;;;2.65;;
55031;SDS011;40928;51.076;7.950;2022-07-09T03:13:53;4.75;;;2.63;;
55031;SDS011;40928;51.076;7.950;2022-07-09T03:16:19;3.45;;;2.08;;
55031;SDS011;40928;51.076;7.950;2022-07-09T03:18:45;3.10;;;2.22;;
55031;SDS011;40928;51.076;7.950;2022-07-09T03:21:10;4.15;;;2.72;;
55031;SDS011;40928;51.076;7.950;2022-07-09T03:23:36;4.95;;;1.95;;
55031;SDS011;40928;51.076;7.950;2022-07-09T03:26:03;3.20;;;1.90;;
55031;SDS011;40928;51.076;7.950;2022-07-09T03:28:29;4.88;;;2.25;;
55031;SDS011;40928;51.076;7.950;2022-07-09T03:30:55;3.75;;;2.50;;
55031;SDS011;40928;51.076;7.950;2022-07-09T03:33:21;2.80;;;1.80;;
55031;SDS011;40928;51.076;7.950;2022-07-09T03:35:46;6.40;;;1.95;;
55031;SDS011;40928;51.076;7.950;2022-07-09T03:38:12;4.55;;;2.80;;
55031;SDS011;40928;51.076;7.950;2022-07-09T03:40:37;2.88;;;2.30;;
55031;SDS011;40928;51.076;7.950;2022-07-09T03:43:03;7.32;;;2.70;;
55031;SDS011;40928;51.076;7.950;2022-07-09T03:45:28;3.03;;;2.50;;
55031;SDS011;40928;51.076;7.950;2022-07-09T03:47:54;6.10;;;2.47;;
55031;SDS011;40928;51.076;7.950;2022-07-09T03:50:20;3.22;;;2.35;;
55031;SDS011;40928;51.076;7.950;2022-07-09T03:52:45;3.53;;;2.55;;
55031;SDS011;40928;51.076;7.950;2022-07-09T03:55:11;6.65;;;2.58;;
55031;SDS011;40928;51.076;7.950;2022-07-09T03:57:37;4.03;;;1.88;;
55031;SDS011;40928;51.076;7.950;2022-07-09T04:00:03;5.38;;;2.95;;
55031;SDS011;40928;51.076;7.950;2022-07-09T04:02:37;2.75;;;2.00;;
55031;SDS011;40928;51.076;7.950;2022-07-09T04:05:03;3.88;;;2.30;;
55031;SDS011;40928;51.076;7.950;2022-07-09T04:07:29;3.13;;;2.80;;
55031;SDS011;40928;51.076;7.950;2022-07-09T04:09:54;4.60;;;2.60;;
55031;SDS011;40928;51.076;7.950;2022-07-09T04:12:21;3.55;;;2.22;;
55031;SDS011;40928;51.076;7.950;2022-07-09T04:14:46;5.45;;;2.70;;
55031;SDS011;40928;51.076;7.950;2022-07-09T04:17:12;3.95;;;2.10;;
55031;SDS011;40928;51.076;7.950;2022-07-09T04:19:38;6.43;;;3.05;;
55031;SDS011;40928;51.076;7.950;2022-07-09T04:22:03;6.63;;;3.08;;
55031;SDS011;40928;51.076;7.950;2022-07-09T04:24:29;3.22;;;2.45;;
55031;SDS011;40928;51.076;7.950;2022-07-09T04:26:55;7.00;;;3.17;;
55031;SDS011;40928;51.076;7.950;2022-07-09T04:29:21;7.03;;;2.90;;
55031;SDS011;40928;51.076;7.950;2022-07-09T04:31:47;4.05;;;2.60;;
55031;SDS011;40928;51.076;7.950;2022-07-09T04:34:12;3.65;;;2.30;;
55031;SDS011;40928;51.076;7.950;2022-07-09T04:36:38;4.75;;;2.25;;
55031;SDS011;40928;51.076;7.950;2022-07-09T04:39:04;5.85;;;3.08;;
55031;SDS011;40928;51.076;7.950;2022-07-09T04:41:30;6.20;;;3.10;;
55031;SDS011;40928;51.076;7.950;2022-07-09T04:43:56;4.15;;;3.10;;
55031;SDS011;40928;51.076;7.950;2022-07-09T04:46:21;4.90;;;3.40;;
55031;SDS011;40928;51.076;7.950;2022-07-09T04:48:47;6.75;;;3.25;;
55031;SDS011;40928;51.076;7.950;2022-07-09T04:51:16;6.13;;;2.78;;
55031;SDS011;40928;51.076;7.950;2022-07-09T04:53:41;4.57;;;2.67;;
55031;SDS011;40928;51.076;7.950;2022-07-09T04:56:07;4.47;;;2.72;;
55031;SDS011;40928;51.076;7.950;2022-07-09T04:58:33;6.47;;;2.90;;
55031;SDS011;40928;51.076;7.950;2022-07-09T05:00:58;4.35;;;3.17;;
55031;SDS011;40928;51.076;7.950;2022-07-09T05:03:24;2.90;;;2.20;;
55031;SDS011;40928;51.076;7.950;2022-07-09T05:05:50;6.57;;;2.40;;
55031;SDS011;40928;51.076;7.950;2022-07-09T05:08:17;4.03;;;3.10;;
55031;SDS011;40928;51.076;7.950;2022-07-09T05:10:44;4.50;;;3.22;;
55031;SDS011;40928;51.076;7.950;2022-07-09T05:13:09;2.72;;;2.35;;
55031;SDS011;40928;51.076;7.950;2022-07-09T05:15:35;8.05;;;4.57;;
55031;SDS011;40928;51.076;7.950;2022-07-09T05:18:01;5.13;;;3.50;;
55031;SDS011;40928;51.076;7.950;2022-07-09T05:20:26;4.03;;;3.05;;
55031;SDS011;40928;51.076;7.950;2022-07-09T05:22:52;5.03;;;2.63;;
55031;SDS011;40928;51.076;7.950;2022-07-09T05:25:17;2.80;;;2.40;;
55031;SDS011;40928;51.076;7.950;2022-07-09T05:27:44;4.65;;;3.63;;
55031;SDS011;40928;51.076;7.950;2022-07-09T05:30:11;8.57;;;4.55;;
55031;SDS011;40928;51.076;7.950;2022-07-09T05:32:41;5.45;;;3.10;;
55031;SDS011;40928;51.076;7.950;2022-07-09T05:35:07;3.28;;;2.83;;
55031;SDS011;40928;51.076;7.950;2022-07-09T05:37:33;19.25;;;12.15;;
55031;SDS011;40928;51.076;7.950;2022-07-09T05:40:05;11.00;;;5.65;;
55031;SDS011;40928;51.076;7.950;2022-07-09T05:42:31;7.10;;;4.75;;
55031;SDS011;40928;51.076;7.950;2022-07-09T05:44:58;9.70;;;4.95;;
55031;SDS011;40928;51.076;7.950;2022-07-09T05:47:24;10.35;;;4.72;;
55031;SDS011;40928;51.076;7.950;2022-07-09T05:49:50;5.82;;;3.47;;
55031;SDS011;40928;51.076;7.950;2022-07-09T05:52:15;4.28;;;2.90;;
55031;SDS011;40928;51.076;7.950;2022-07-09T05:54:41;4.70;;;3.17;;
55031;SDS011;40928;51.076;7.950;2022-07-09T05:57:06;7.85;;;4.18;;
55031;SDS011;40928;51.076;7.950;2022-07-09T05:59:32;7.95;;;4.93;;
55031;SDS011;40928;51.076;7.950;2022-07-09T06:01:57;7.60;;;4.93;;
55031;SDS011;40928;51.076;7.950;2022-07-09T06:04:23;7.40;;;4.45;;
55031;SDS011;40928;51.076;7.950;2022-07-09T06:06:49;8.18;;;4.20;;
55031;SDS011;40928;51.076;7.950;2022-07-09T06:09:14;8.88;;;4.90;;
55031;SDS011;40928;51.076;7.950;2022-07-09T06:11:40;6.47;;;4.63;;
55031;SDS011;40928;51.076;7.950;2022-07-09T06:14:05;9.35;;;6.40;;
55031;SDS011;40928;51.076;7.950;2022-07-09T06:16:31;12.63;;;5.93;;
55031;SDS011;40928;51.076;7.950;2022-07-09T06:18:56;7.35;;;5.30;;
55031;SDS011;40928;51.076;7.950;2022-07-09T06:21:22;12.38;;;6.15;;
55031;SDS011;40928;51.076;7.950;2022-07-09T06:23:47;10.25;;;5.50;;
55031;SDS011;40928;51.076;7.950;2022-07-09T06:26:13;6.85;;;4.18;;
55031;SDS011;40928;51.076;7.950;2022-07-09T06:28:38;10.65;;;4.18;;
55031;SDS011;40928;51.076;7.950;2022-07-09T06:31:04;19.00;;;8.80;;
55031;SDS011;40928;51.076;7.950;2022-07-09T06:33:30;20.45;;;10.60;;
55031;SDS011;40928;51.076;7.950;2022-07-09T06:35:55;19.92;;;11.35;;
55031;SDS011;40928;51.076;7.950;2022-07-09T06:38:21;17.52;;;7.22;;
55031;SDS011;40928;51.076;7.950;2022-07-09T06:40:46;8.00;;;5.97;;
55031;SDS011;40928;51.076;7.950;2022-07-09T06:43:12;8.75;;;4.30;;
55031;SDS011;40928;51.076;7.950;2022-07-09T06:45:45;9.25;;;5.85;;
55031;SDS011;40928;51.076;7.950;2022-07-09T06:48:11;10.65;;;4.90;;
55031;SDS011;40928;51.076;7.950;2022-07-09T06:50:36;7.82;;;4.22;;
55031;SDS011;40928;51.076;7.950;2022-07-09T06:53:02;8.15;;;3.75;;
55031;SDS011;40928;51.076;7.950;2022-07-09T06:55:28;5.20;;;3.45;;
55031;SDS011;40928;51.076;7.950;2022-07-09T06:57:53;7.07;;;3.40;;
55031;SDS011;40928;51.076;7.950;2022-07-09T07:00:19;7.00;;;3.47;;
55031;SDS011;40928;51.076;7.950;2022-07-09T07:02:46;5.53;;;3.00;;
55031;SDS011;40928;51.076;7.950;2022-07-09T07:05:12;5.32;;;3.63;;
55031;SDS011;40928;51.076;7.950;2022-07-09T07:07:37;6.25;;;1.65;;
55031;SDS011;40928;51.076;7.950;2022-07-09T07:10:03;6.10;;;2.17;;
55031;SDS011;40928;51.076;7.950;2022-07-09T07:12:29;7.18;;;1.80;;
55031;SDS011;40928;51.076;7.950;2022-07-09T07:14:54;2.95;;;1.65;;
55031;SDS011;40928;51.076;7.950;2022-07-09T07:17:20;4.03;;;1.58;;
55031;SDS011;40928;51.076;7.950;2022-07-09T07:19:45;6.40;;;1.77;;
55031;SDS011;40928;51.076;7.950;2022-07-09T07:22:12;4.00;;;1.58;;
55031;SDS011;40928;51.076;7.950;2022-07-09T07:24:40;3.13;;;1.40;;
55031;SDS011;40928;51.076;7.950;2022-07-09T07:27:05;7.88;;;1.27;;
55031;SDS011;40928;51.076;7.950;2022-07-09T07:29:31;2.80;;;1.30;;
55031;SDS011;40928;51.076;7.950;2022-07-09T07:31:56;2.10;;;1.15;;
55031;SDS011;40928;51.076;7.950;2022-07-09T07:34:22;1.52;;;1.10;;
55031;SDS011;40928;51.076;7.950;2022-07-09T07:36:49;1.90;;;1.00;;
55031;SDS011;40928;51.076;7.950;2022-07-09T07:39:16;2.58;;;0.70;;
55031;SDS011;40928;51.076;7.950;2022-07-09T07:41:43;1.35;;;0.60;;
55031;SDS011;40928;51.076;7.950;2022-07-09T07:44:09;1.95;;;1.10;;
55031;SDS011;40928;51.076;7.950;2022-07-09T07:46:35;2.33;;;0.60;;
55031;SDS011;40928;51.076;7.950;2022-07-09T07:49:00;1.23;;;0.40;;
55031;SDS011;40928;51.076;7.950;2022-07-09T07:51:29;2.80;;;0.73;;
55031;SDS011;40928;51.076;7.950;2022-07-09T07:53:54;2.45;;;0.70;;
55031;SDS011;40928;51.076;7.950;2022-07-09T07:56:20;1.42;;;0.70;;
55031;SDS011;40928;51.076;7.950;2022-07-09T07:58:45;5.07;;;0.70;;
55031;SDS011;40928;51.076;7.950;2022-07-09T08:01:11;3.67;;;0.50;;
55031;SDS011;40928;51.076;7.950;2022-07-09T08:03:36;1.13;;;0.60;;
55031;SDS011;40928;51.076;7.950;2022-07-09T08:06:02;1.67;;;0.63;;
55031;SDS011;40928;51.076;7.950;2022-07-09T08:08:28;1.00;;;0.60;;
55031;SDS011;40928;51.076;7.950;2022-07-09T08:10:53;0.43;;;0.40;;
55031;SDS011;40928;51.076;7.950;2022-07-09T08:13:19;1.52;;;0.60;;
55031;SDS011;40928;51.076;7.950;2022-07-09T08:15:44;1.63;;;0.55;;
55031;SDS011;40928;51.076;7.950;2022-07-09T08:18:10;0.88;;;0.50;;
55031;SDS011;40928;51.076;7.950;2022-07-09T08:20:41;2.15;;;0.57;;
55031;SDS011;40928;51.076;7.950;2022-07-09T08:23:07;1.23;;;0.40;;
55031;SDS011;40928;51.076;7.950;2022-07-09T08:25:33;1.30;;;0.35;;
55031;SDS011;40928;51.076;7.950;2022-07-09T08:27:59;1.20;;;0.52;;
55031;SDS011;40928;51.076;7.950;2022-07-09T08:30:24;1.92;;;0.30;;
55031;SDS011;40928;51.076;7.950;2022-07-09T08:32:50;0.63;;;0.43;;
55031;SDS011;40928;51.076;7.950;2022-07-09T08:35:15;1.40;;;0.40;;
55031;SDS011;40928;51.076;7.950;2022-07-09T08:37:41;1.75;;;0.80;;
55031;SDS011;40928;51.076;7.950;2022-07-09T08:40:06;1.73;;;0.38;;
55031;SDS011;40928;51.076;7.950;2022-07-09T08:42:33;0.50;;;0.30;;
55031;SDS011;40928;51.076;7.950;2022-07-09T08:44:58;1.13;;;0.40;;
55031;SDS011;40928;51.076;7.950;2022-07-09T08:47:24;0.55;;;0.45;;
55031;SDS011;40928;51.076;7.950;2022-07-09T08:49:50;1.65;;;0.20;;
55031;SDS011;40928;51.076;7.950;2022-07-09T08:52:21;1.08;;;0.30;;
55031;SDS011;40928;51.076;7.950;2022-07-09T08:54:49;1.15;;;0.40;;
55031;SDS011;40928;51.076;7.950;2022-07-09T08:57:17;3.30;;;0.60;;
55031;SDS011;40928;51.076;7.950;2022-07-09T08:59:43;1.35;;;0.40;;
55031;SDS011;40928;51.076;7.950;2022-07-09T09:02:08;1.05;;;0.30;;
55031;SDS011;40928;51.076;7.950;2022-07-09T09:04:35;0.60;;;0.52;;
55031;SDS011;40928;51.076;7.950;2022-07-09T09:07:16;2.15;;;0.40;;
55031;SDS011;40928;51.076;7.950;2022-07-09T09:09:43;0.93;;;0.50;;
55031;SDS011;40928;51.076;7.950;2022-07-09T09:12:09;0.90;;;0.55;;
55031;SDS011;40928;51.076;7.950;2022-07-09T09:14:34;0.52;;;0.40;;
55031;SDS011;40928;51.076;7.950;2022-07-09T09:17:06;1.00;;;0.45;;
55031;SDS011;40928;51.076;7.950;2022-07-09T09:19:37;1.17;;;0.65;;
55031;SDS011;40928;51.076;7.950;2022-07-09T09:22:04;2.10;;;0.77;;
55031;SDS011;40928;51.076;7.950;2022-07-09T09:24:30;0.80;;;0.43;;
55031;SDS011;40928;51.076;7.950;2022-07-09T09:26:56;0.45;;;0.45;;
55031;SDS011;40928;51.076;7.950;2022-07-09T09:29:22;2.38;;;0.63;;
55031;SDS011;40928;51.076;7.950;2022-07-09T09:31:48;3.92;;;0.50;;
55031;SDS011;40928;51.076;7.950;2022-07-09T09:34:15;1.55;;;0.68;;
55031;SDS011;40928;51.076;7.950;2022-07-09T09:36:42;1.77;;;0.38;;
55031;SDS011;40928;51.076;7.950;2022-07-09T09:41:39;1.73;;;0.50;;
55031;SDS011;40928;51.076;7.950;2022-07-09T09:44:06;0.70;;;0.43;;
55031;SDS011;40928;51.076;7.950;2022-07-09T09:46:35;0.85;;;0.40;;
55031;SDS011;40928;51.076;7.950;2022-07-09T09:49:03;0.93;;;0.22;;
55031;SDS011;40928;51.076;7.950;2022-07-09T09:54:23;1.65;;;0.60;;
55031;SDS011;40928;51.076;7.950;2022-07-09T09:56:49;0.68;;;0.45;;
55031;SDS011;40928;51.076;7.950;2022-07-09T09:59:15;1.15;;;0.40;;
55031;SDS011;40928;51.076;7.950;2022-07-09T10:01:41;0.68;;;0.30;;
55031;SDS011;40928;51.076;7.950;2022-07-09T10:04:08;1.00;;;0.38;;
55031;SDS011;40928;51.076;7.950;2022-07-09T10:06:35;1.00;;;0.40;;
55031;SDS011;40928;51.076;7.950;2022-07-09T10:09:02;1.45;;;0.40;;
55031;SDS011;40928;51.076;7.950;2022-07-09T10:14:08;2.03;;;0.43;;
55031;SDS011;40928;51.076;7.950;2022-07-09T10:16:41;1.10;;;0.47;;
55031;SDS011;40928;51.076;7.950;2022-07-09T10:19:07;1.25;;;0.47;;
55031;SDS011;40928;51.076;7.950;2022-07-09T10:21:33;0.88;;;0.40;;
55031;SDS011;40928;51.076;7.950;2022-07-09T10:24:07;1.38;;;0.50;;
55031;SDS011;40928;51.076;7.950;2022-07-09T10:29:23;0.83;;;0.70;;
55031;SDS011;40928;51.076;7.950;2022-07-09T10:31:52;3.47;;;0.70;;
55031;SDS011;40928;51.076;7.950;2022-07-09T10:34:31;4.68;;;0.90;;
55031;SDS011;40928;51.076;7.950;2022-07-09T10:37:01;1.70;;;0.90;;
55031;SDS011;40928;51.076;7.950;2022-07-09T10:39:28;1.45;;;0.68;;
55031;SDS011;40928;51.076;7.950;2022-07-09T10:42:01;1.95;;;0.70;;
55031;SDS011;40928;51.076;7.950;2022-07-09T10:44:28;2.67;;;1.05;;
55031;SDS011;40928;51.076;7.950;2022-07-09T10:47:02;3.08;;;0.70;;
55031;SDS011;40928;51.076;7.950;2022-07-09T10:49:34;7.05;;;1.40;;
55031;SDS011;40928;51.076;7.950;2022-07-09T10:52:00;2.78;;;0.93;;
55031;SDS011;40928;51.076;7.950;2022-07-09T10:54:26;1.83;;;0.93;;
55031;SDS011;40928;51.076;7.950;2022-07-09T10:56:52;4.72;;;1.33;;
55031;SDS011;40928;51.076;7.950;2022-07-09T10:59:19;3.00;;;0.80;;
55031;SDS011;40928;51.076;7.950;2022-07-09T11:01:45;4.20;;;1.42;;
55031;SDS011;40928;51.076;7.950;2022-07-09T11:04:12;2.42;;;1.30;;
55031;SDS011;40928;51.076;7.950;2022-07-09T11:06:48;2.55;;;1.20;;
55031;SDS011;40928;51.076;7.950;2022-07-09T11:09:14;4.43;;;1.23;;
55031;SDS011;40928;51.076;7.950;2022-07-09T11:11:43;3.13;;;1.45;;
55031;SDS011;40928;51.076;7.950;2022-07-09T11:14:10;5.03;;;1.55;;
55031;SDS011;40928;51.076;7.950;2022-07-09T11:16:39;4.82;;;1.27;;
55031;SDS011;40928;51.076;7.950;2022-07-09T11:21:40;6.28;;;1.45;;
55031;SDS011;40928;51.076;7.950;2022-07-09T11:24:13;3.45;;;0.93;;
55031;SDS011;40928;51.076;7.950;2022-07-09T11:26:49;3.05;;;1.00;;
55031;SDS011;40928;51.076;7.950;2022-07-09T11:29:18;3.40;;;1.35;;
55031;SDS011;40928;51.076;7.950;2022-07-09T11:31:48;2.45;;;0.85;;
55031;SDS011;40928;51.076;7.950;2022-07-09T11:34:18;2.55;;;0.90;;
55031;SDS011;40928;51.076;7.950;2022-07-09T11:36:45;3.88;;;1.20;;
55031;SDS011;40928;51.076;7.950;2022-07-09T11:39:25;4.82;;;0.90;;
55031;SDS011;40928;51.076;7.950;2022-07-09T11:41:51;4.88;;;1.00;;
55031;SDS011;40928;51.076;7.950;2022-07-09T11:44:24;2.53;;;1.00;;
55031;SDS011;40928;51.076;7.950;2022-07-09T11:47:11;2.03;;;1.00;;
55031;SDS011;40928;51.076;7.950;2022-07-09T11:49:41;5.28;;;1.10;;
55031;SDS011;40928;51.076;7.950;2022-07-09T11:52:18;2.58;;;0.80;;
55031;SDS011;40928;51.076;7.950;2022-07-09T11:55:08;3.72;;;0.82;;
55031;SDS011;40928;51.076;7.950;2022-07-09T11:57:35;2.53;;;1.00;;
55031;SDS011;40928;51.076;7.950;2022-07-09T12:00:05;2.80;;;1.08;;
55031;SDS011;40928;51.076;7.950;2022-07-09T12:02:36;3.85;;;1.25;;
55031;SDS011;40928;51.076;7.950;2022-07-09T12:05:03;4.25;;;1.95;;
55031;SDS011;40928;51.076;7.950;2022-07-09T12:07:30;3.42;;;1.10;;
55031;SDS011;40928;51.076;7.950;2022-07-09T12:10:00;1.65;;;1.20;;
55031;SDS011;40928;51.076;7.950;2022-07-09T12:12:26;1.95;;;1.13;;
55031;SDS011;40928;51.076;7.950;2022-07-09T12:14:52;2.90;;;1.27;;
55031;SDS011;40928;51.076;7.950;2022-07-09T12:17:20;3.38;;;1.40;;
55031;SDS011;40928;51.076;7.950;2022-07-09T12:19:48;7.15;;;1.30;;
55031;SDS011;40928;51.076;7.950;2022-07-09T12:22:14;4.35;;;2.15;;
55031;SDS011;40928;51.076;7.950;2022-07-09T12:24:39;1.88;;;1.10;;
55031;SDS011;40928;51.076;7.950;2022-07-09T12:27:05;4.10;;;1.30;;
55031;SDS011;40928;51.076;7.950;2022-07-09T12:29:30;3.50;;;1.60;;
55031;SDS011;40928;51.076;7.950;2022-07-09T12:31:56;3.40;;;1.23;;
55031;SDS011;40928;51.076;7.950;2022-07-09T12:34:21;5.03;;;1.38;;
55031;SDS011;40928;51.076;7.950;2022-07-09T12:36:48;6.35;;;1.60;;
55031;SDS011;40928;51.076;7.950;2022-07-09T12:39:14;1.48;;;1.10;;
55031;SDS011;40928;51.076;7.950;2022-07-09T12:41:39;4.68;;;1.48;;
55031;SDS011;40928;51.076;7.950;2022-07-09T12:44:05;4.80;;;1.67;;
55031;SDS011;40928;51.076;7.950;2022-07-09T12:46:30;2.92;;;1.10;;
55031;SDS011;40928;51.076;7.950;2022-07-09T12:48:56;3.08;;;1.30;;
55031;SDS011;40928;51.076;7.950;2022-07-09T12:51:21;5.00;;;1.67;;
55031;SDS011;40928;51.076;7.950;2022-07-09T12:53:47;2.97;;;1.30;;
55031;SDS011;40928;51.076;7.950;2022-07-09T12:56:12;2.80;;;1.30;;
55031;SDS011;40928;51.076;7.950;2022-07-09T12:58:38;1.88;;;1.10;;
55031;SDS011;40928;51.076;7.950;2022-07-09T13:01:03;2.20;;;1.17;;
55031;SDS011;40928;51.076;7.950;2022-07-09T13:03:29;3.33;;;1.33;;
55031;SDS011;40928;51.076;7.950;2022-07-09T13:05:55;2.10;;;1.25;;
55031;SDS011;40928;51.076;7.950;2022-07-09T13:08:20;2.40;;;1.20;;
55031;SDS011;40928;51.076;7.950;2022-07-09T13:10:46;3.47;;;1.02;;
55031;SDS011;40928;51.076;7.950;2022-07-09T13:13:12;2.47;;;1.00;;
55031;SDS011;40928;51.076;7.950;2022-07-09T13:15:38;4.22;;;0.98;;
55031;SDS011;40928;51.076;7.950;2022-07-09T13:18:03;2.08;;;0.82;;
55031;SDS011;40928;51.076;7.950;2022-07-09T13:20:29;2.97;;;1.30;;
55031;SDS011;40928;51.076;7.950;2022-07-09T13:22:54;3.08;;;0.88;;
55031;SDS011;40928;51.076;7.950;2022-07-09T13:25:20;1.05;;;0.95;;
55031;SDS011;40928;51.076;7.950;2022-07-09T13:27:45;1.35;;;0.90;;
55031;SDS011;40928;51.076;7.950;2022-07-09T13:30:11;2.75;;;1.20;;
55031;SDS011;40928;51.076;7.950;2022-07-09T13:32:36;2.00;;;0.77;;
55031;SDS011;40928;51.076;7.950;2022-07-09T13:35:02;2.05;;;0.93;;
55031;SDS011;40928;51.076;7.950;2022-07-09T13:37:28;3.45;;;1.20;;
55031;SDS011;40928;51.076;7.950;2022-07-09T13:39:56;1.42;;;0.88;;
55031;SDS011;40928;51.076;7.950;2022-07-09T13:42:22;1.75;;;1.00;;
55031;SDS011;40928;51.076;7.950;2022-07-09T13:44:47;1.35;;;1.02;;
55031;SDS011;40928;51.076;7.950;2022-07-09T13:47:13;1.35;;;0.95;;
55031;SDS011;40928;51.076;7.950;2022-07-09T13:49:39;2.50;;;1.20;;
55031;SDS011;40928;51.076;7.950;2022-07-09T13:52:05;1.60;;;1.20;;
55031;SDS011;40928;51.076;7.950;2022-07-09T13:54:30;2.30;;;1.02;;
55031;SDS011;40928;51.076;7.950;2022-07-09T13:56:56;3.78;;;1.40;;
55031;SDS011;40928;51.076;7.950;2022-07-09T13:59:22;5.80;;;1.10;;
55031;SDS011;40928;51.076;7.950;2022-07-09T14:01:47;2.58;;;1.15;;
55031;SDS011;40928;51.076;7.950;2022-07-09T14:04:13;2.40;;;1.40;;
55031;SDS011;40928;51.076;7.950;2022-07-09T14:06:38;4.10;;;1.30;;
55031;SDS011;40928;51.076;7.950;2022-07-09T14:09:04;1.38;;;1.10;;
55031;SDS011;40928;51.076;7.950;2022-07-09T14:11:30;2.08;;;1.40;;
55031;SDS011;40928;51.076;7.950;2022-07-09T14:13:56;5.03;;;1.77;;
55031;SDS011;40928;51.076;7.950;2022-07-09T14:16:22;3.08;;;1.50;;
55031;SDS011;40928;51.076;7.950;2022-07-09T14:18:48;1.70;;;1.20;;
55031;SDS011;40928;51.076;7.950;2022-07-09T14:21:13;2.20;;;1.58;;
55031;SDS011;40928;51.076;7.950;2022-07-09T14:23:42;2.55;;;1.40;;
55031;SDS011;40928;51.076;7.950;2022-07-09T14:26:13;2.90;;;1.42;;
55031;SDS011;40928;51.076;7.950;2022-07-09T14:28:40;7.28;;;1.70;;
55031;SDS011;40928;51.076;7.950;2022-07-09T14:31:06;2.15;;;1.40;;
55031;SDS011;40928;51.076;7.950;2022-07-09T14:33:31;2.53;;;1.50;;
55031;SDS011;40928;51.076;7.950;2022-07-09T14:35:57;3.58;;;1.70;;
55031;SDS011;40928;51.076;7.950;2022-07-09T14:38:23;4.80;;;2.10;;
55031;SDS011;40928;51.076;7.950;2022-07-09T14:40:48;5.10;;;1.85;;
55031;SDS011;40928;51.076;7.950;2022-07-09T14:43:15;2.63;;;1.70;;
55031;SDS011;40928;51.076;7.950;2022-07-09T14:45:40;3.97;;;2.10;;
55031;SDS011;40928;51.076;7.950;2022-07-09T14:48:06;2.42;;;1.77;;
55031;SDS011;40928;51.076;7.950;2022-07-09T14:50:34;4.75;;;2.17;;
55031;SDS011;40928;51.076;7.950;2022-07-09T14:53:00;2.22;;;1.75;;
55031;SDS011;40928;51.076;7.950;2022-07-09T14:55:27;4.75;;;2.78;;
55031;SDS011;40928;51.076;7.950;2022-07-09T14:57:53;2.90;;;2.58;;